Time;durP1;ratioP1;P1;durP2;ratioP2;P2;SDS_P1;SDS_P2;PMS_P1;PMS_P2;Temp;Humidity;BMP_temperature;BMP_pressure;BME280_temperature;BME280_humidity;BME280_pressure;Samples;Min_cycle;Max_cycle;Signal;HPM_P1;HPM_P2
2023/06/18 00:00:57;;;;;;;2.60;2.38;;;21.80;75.20;;;;;;4174864;28;20082;-60
2023/06/18 00:02:57;;;;;;;3.70;2.80;;;21.80;74.60;;;;;;4174418;28;20041;-60
2023/06/18 00:04:58;;;;;;;3.67;2.75;;;21.70;73.80;;;;;;4180537;28;20033;-59
2023/06/18 00:06:58;;;;;;;5.53;3.10;;;21.70;73.90;;;;;;4174407;28;20543;-59
2023/06/18 00:08:59;;;;;;;3.25;2.50;;;21.70;73.10;;;;;;4183264;28;20377;-59
2023/06/18 00:11:00;;;;;;;3.25;2.75;;;21.60;73.40;;;;;;4185541;28;20021;-60
2023/06/18 00:13:00;;;;;;;4.13;2.65;;;21.60;72.60;;;;;;4182246;28;20032;-60
2023/06/18 00:15:01;;;;;;;4.38;2.92;;;21.50;73.10;;;;;;4190059;28;20373;-59
2023/06/18 00:17:02;;;;;;;3.42;2.70;;;21.50;73.30;;;;;;4187077;28;20033;-60
2023/06/18 00:19:02;;;;;;;3.55;2.90;;;21.50;74.40;;;;;;4186516;28;20056;-59
2023/06/18 00:21:07;;;;;;;3.95;3.25;;;21.50;73.80;;;;;;4174010;28;20154;-61
2023/06/18 00:23:08;;;;;;;6.07;3.50;;;21.50;73.20;;;;;;4165722;28;20040;-59
2023/06/18 00:25:08;;;;;;;4.25;3.20;;;21.50;72.70;;;;;;4181396;28;20484;-60
2023/06/18 00:27:09;;;;;;;4.13;2.92;;;21.50;73.20;;;;;;4181854;28;20037;-60
2023/06/18 00:29:10;;;;;;;5.28;3.28;;;21.40;73.40;;;;;;4176143;28;20058;-59
2023/06/18 00:31:13;;;;;;;3.90;3.33;;;21.30;73.80;;;;;;4186940;28;20124;-60
2023/06/18 00:33:13;;;;;;;;;;;21.40;74.80;;;;;;4183187;28;20033;-60
2023/06/18 00:35:15;;;;;;;3.55;2.83;;;21.30;75.00;;;;;;4173852;28;19944;-60
2023/06/18 00:37:15;;;;;;;4.10;2.78;;;21.30;75.20;;;;;;4173132;28;20091;-62
2023/06/18 00:39:16;;;;;;;3.00;2.60;;;21.30;75.00;;;;;;4170271;28;20041;-60
2023/06/18 00:41:17;;;;;;;3.35;2.78;;;21.30;75.60;;;;;;4175364;28;20507;-60
2023/06/18 00:43:18;;;;;;;3.50;2.63;;;21.20;75.40;;;;;;4178977;28;20713;-59
2023/06/18 00:45:20;;;;;;;3.78;2.70;;;21.20;75.40;;;;;;4179942;28;20032;-60
2023/06/18 00:47:21;;;;;;;4.57;2.42;;;21.20;75.70;;;;;;4188174;28;20045;-60
2023/06/18 00:49:22;;;;;;;4.30;2.90;;;21.20;76.10;;;;;;4172969;28;20086;-60
2023/06/18 00:51:26;;;;;;;4.07;3.28;;;21.20;77.30;;;;;;4173996;28;20511;-59
2023/06/18 00:53:28;;;;;;;3.10;2.35;;;21.20;77.00;;;;;;4176900;28;20032;-59
2023/06/18 00:55:29;;;;;;;4.40;2.92;;;21.20;76.50;;;;;;4176400;28;20040;-59
2023/06/18 00:57:34;;;;;;;3.38;2.60;;;21.20;76.60;;;;;;4176973;28;20036;-60
2023/06/18 00:59:37;;;;;;;3.88;2.83;;;21.10;76.70;;;;;;4176060;28;20047;-63
2023/06/18 01:01:38;;;;;;;6.63;2.90;;;21.10;77.10;;;;;;4176024;28;20095;-60
2023/06/18 01:03:39;;;;;;;3.28;2.55;;;21.20;77.40;;;;;;4176351;28;20048;-59
2023/06/18 01:05:40;;;;;;;4.47;2.70;;;21.20;77.30;;;;;;4175797;28;20057;-60
2023/06/18 01:07:42;;;;;;;5.40;3.22;;;21.10;76.80;;;;;;4178512;28;20036;-59
2023/06/18 01:09:43;;;;;;;2.83;2.45;;;21.20;77.50;;;;;;4177406;28;20086;-59
2023/06/18 01:11:45;;;;;;;4.00;3.10;;;21.20;78.90;;;;;;4181893;28;20487;-59
2023/06/18 01:13:46;;;;;;;3.92;2.67;;;21.20;77.60;;;;;;4182427;28;20029;-60
2023/06/18 01:15:47;;;;;;;3.42;2.92;;;21.20;77.60;;;;;;4188841;28;20105;-60
2023/06/18 01:17:48;;;;;;;4.68;2.95;;;21.20;77.80;;;;;;4177852;28;20024;-60
2023/06/18 01:20:00;;;;;;;3.40;2.63;;;21.30;78.20;;;;;;4171497;28;20373;-59
2023/06/18 01:22:11;;;;;;;4.67;2.87;;;21.30;78.20;;;;;;4173390;28;20082;-60
2023/06/18 01:24:18;;;;;;;4.22;2.80;;;21.30;77.70;;;;;;4173435;28;20396;-60
2023/06/18 01:26:20;;;;;;;4.22;2.78;;;21.30;77.70;;;;;;4178774;28;20088;-60
2023/06/18 01:28:22;;;;;;;4.18;2.80;;;21.30;78.30;;;;;;4193413;28;20064;-60
2023/06/18 01:30:23;;;;;;;3.80;2.67;;;21.30;77.60;;;;;;4172673;28;20044;-60
2023/06/18 01:32:24;;;;;;;3.63;2.92;;;21.30;77.00;;;;;;4174942;28;20037;-59
2023/06/18 01:34:25;;;;;;;3.65;2.85;;;21.30;76.80;;;;;;4171933;28;20084;-60
2023/06/18 01:36:40;;;;;;;3.50;2.70;;;21.30;77.00;;;;;;4181159;28;20116;-60
2023/06/18 01:38:47;;;;;;;3.35;2.40;;;21.30;77.40;;;;;;4183926;28;20112;-60
2023/06/18 01:40:49;;;;;;;3.00;2.63;;;21.30;77.20;;;;;;4173502;28;20033;-60
2023/06/18 01:42:58;;;;;;;4.97;3.03;;;21.30;77.30;;;;;;4186797;28;20452;-60
2023/06/18 01:45:23;;;;;;;2.83;2.50;;;21.30;77.50;;;;;;4182356;28;20033;-60
2023/06/18 01:47:26;;;;;;;3.42;2.70;;;21.30;77.70;;;;;;4176603;28;20040;-60
2023/06/18 01:49:28;;;;;;;3.35;2.67;;;21.20;77.90;;;;;;4176833;28;20044;-60
2023/06/18 01:51:30;;;;;;;5.80;2.70;;;21.20;78.10;;;;;;4175596;28;20036;-59
2023/06/18 01:53:34;;;;;;;4.05;2.60;;;21.20;78.50;;;;;;4174917;28;20029;-59
2023/06/18 01:55:37;;;;;;;3.15;2.60;;;21.20;78.80;;;;;;4169868;28;20035;-63
2023/06/18 01:57:38;;;;;;;3.40;2.60;;;21.20;79.20;;;;;;4173940;28;20380;-60
2023/06/18 01:59:43;;;;;;;6.07;2.83;;;21.20;79.50;;;;;;4175101;28;20037;-60
2023/06/18 02:01:44;;;;;;;3.70;2.72;;;21.20;79.20;;;;;;4183154;28;20082;-59
2023/06/18 02:03:44;;;;;;;4.90;2.95;;;21.30;79.40;;;;;;4173359;28;20044;-59
2023/06/18 02:05:45;;;;;;;3.80;2.72;;;21.30;78.50;;;;;;4174897;28;20029;-59
2023/06/18 02:07:46;;;;;;;2.97;2.60;;;21.20;78.80;;;;;;4175374;28;20542;-59
2023/06/18 02:09:46;;;;;;;4.55;2.85;;;21.20;79.60;;;;;;4168299;28;20108;-64
2023/06/18 02:11:47;;;;;;;4.75;2.85;;;21.20;80.10;;;;;;4176341;28;20036;-61
2023/06/18 02:13:48;;;;;;;3.75;2.80;;;21.20;80.50;;;;;;4178138;28;20045;-60
2023/06/18 02:15:48;;;;;;;5.18;3.15;;;21.20;80.60;;;;;;4179845;28;20036;-60
2023/06/18 02:17:49;;;;;;;4.72;2.88;;;21.20;81.30;;;;;;4193333;28;20039;-59
2023/06/18 02:19:49;;;;;;;6.85;3.38;;;21.20;81.60;;;;;;4183212;28;20040;-60
2023/06/18 02:21:50;;;;;;;4.63;3.10;;;21.20;80.60;;;;;;4178772;28;20036;-60
2023/06/18 02:23:50;;;;;;;4.53;3.25;;;21.10;80.30;;;;;;4178386;28;20045;-60
2023/06/18 02:25:51;;;;;;;4.40;3.47;;;21.10;80.00;;;;;;4178989;28;20036;-60
2023/06/18 02:27:53;;;;;;;4.97;3.97;;;21.00;79.80;;;;;;4179069;28;20116;-60
2023/06/18 02:29:53;;;;;;;5.07;3.70;;;21.00;80.10;;;;;;4179951;28;20774;-59
2023/06/18 02:31:54;;;;;;;4.72;3.60;;;20.90;81.30;;;;;;4177822;28;20041;-59
2023/06/18 02:33:54;;;;;;;4.13;3.40;;;21.00;81.20;;;;;;4187237;28;20029;-60
2023/06/18 02:35:55;;;;;;;4.75;3.83;;;21.00;81.30;;;;;;4177414;28;20564;-60
2023/06/18 02:37:56;;;;;;;5.65;3.78;;;21.00;81.20;;;;;;4194423;28;20033;-59
2023/06/18 02:39:56;;;;;;;6.03;3.47;;;21.00;81.60;;;;;;4180733;28;20037;-60
2023/06/18 02:41:57;;;;;;;4.82;3.17;;;21.00;80.90;;;;;;4175601;28;20124;-60
2023/06/18 02:43:57;;;;;;;5.05;3.38;;;21.00;80.00;;;;;;4187563;28;20035;-60
2023/06/18 02:45:58;;;;;;;3.92;3.25;;;21.00;80.00;;;;;;4178132;28;20480;-59
2023/06/18 02:47:59;;;;;;;7.30;3.92;;;21.00;80.00;;;;;;4188344;28;20067;-59
2023/06/18 02:49:59;;;;;;;4.13;3.28;;;21.00;80.20;;;;;;4176406;28;20068;-59
2023/06/18 02:52:00;;;;;;;3.60;3.17;;;20.90;80.80;;;;;;4185131;28;20039;-60
2023/06/18 02:54:01;;;;;;;4.93;3.00;;;20.90;81.40;;;;;;4181347;28;20432;-59
2023/06/18 02:56:02;;;;;;;4.75;3.17;;;20.80;81.50;;;;;;4175198;28;20426;-59
2023/06/18 02:58:03;;;;;;;4.53;3.22;;;20.80;81.60;;;;;;4171902;28;20025;-59
2023/06/18 03:00:05;;;;;;;4.35;3.40;;;20.90;81.40;;;;;;4177697;28;20103;-62
2023/06/18 03:02:06;;;;;;;;;;;20.80;81.10;;;;;;4183003;28;20052;-60
2023/06/18 03:04:07;;;;;;;2.80;2.50;;;20.80;81.00;;;;;;4179099;28;19932;-60
2023/06/18 03:06:07;;;;;;;4.88;3.28;;;20.80;81.20;;;;;;4176723;28;20128;-62
2023/06/18 03:08:08;;;;;;;3.88;3.05;;;20.80;81.50;;;;;;4175583;28;20032;-60
2023/06/18 03:10:09;;;;;;;3.67;2.97;;;20.80;81.80;;;;;;4177176;28;20060;-60
2023/06/18 03:12:11;;;;;;;4.43;2.90;;;20.80;82.20;;;;;;4175445;28;20040;-60
2023/06/18 03:14:11;;;;;;;3.80;3.20;;;20.70;82.40;;;;;;4194161;28;20043;-60
2023/06/18 03:16:12;;;;;;;4.32;3.03;;;20.70;82.60;;;;;;4170256;28;20456;-60
2023/06/18 03:18:13;;;;;;;4.72;2.60;;;20.70;82.20;;;;;;4181403;28;20036;-60
2023/06/18 03:20:13;;;;;;;3.88;3.10;;;20.70;82.00;;;;;;4194284;28;20032;-59
2023/06/18 03:22:14;;;;;;;4.65;3.25;;;20.70;82.40;;;;;;4182255;28;20134;-59
2023/06/18 03:24:15;;;;;;;4.47;3.20;;;20.70;82.10;;;;;;4178216;28;20103;-60
2023/06/18 03:26:16;;;;;;;3.42;3.10;;;20.70;82.70;;;;;;4176550;28;20062;-60
2023/06/18 03:28:17;;;;;;;4.05;2.80;;;20.70;82.30;;;;;;4162442;28;20034;-60
2023/06/18 03:30:18;;;;;;;4.63;3.00;;;20.70;82.00;;;;;;4169396;28;20124;-62
2023/06/18 03:32:21;;;;;;;4.07;3.20;;;20.70;82.00;;;;;;4189239;28;20056;-60
2023/06/18 03:34:22;;;;;;;4.57;2.70;;;20.70;82.20;;;;;;4175245;28;20521;-60
2023/06/18 03:36:23;;;;;;;4.65;3.42;;;20.70;82.20;;;;;;4175092;28;20561;-60
2023/06/18 03:38:24;;;;;;;5.97;3.05;;;20.70;82.20;;;;;;4172227;28;20056;-59
2023/06/18 03:40:24;;;;;;;4.75;3.45;;;20.70;82.20;;;;;;4186767;28;20171;-60
2023/06/18 03:42:25;;;;;;;5.03;3.60;;;20.70;82.10;;;;;;4179330;28;20044;-60
2023/06/18 03:44:26;;;;;;;3.63;3.10;;;20.60;82.60;;;;;;4191559;28;20035;-59
2023/06/18 03:46:26;;;;;;;4.90;3.60;;;20.60;83.00;;;;;;4188789;28;20045;-59
2023/06/18 03:48:27;;;;;;;4.82;3.63;;;20.60;83.10;;;;;;4174161;28;20040;-59
2023/06/18 03:50:27;;;;;;;5.05;3.50;;;20.60;83.30;;;;;;4187506;28;20675;-60
2023/06/18 03:52:28;;;;;;;4.72;3.50;;;20.60;84.00;;;;;;4167004;28;20032;-60
2023/06/18 03:54:29;;;;;;;5.38;3.30;;;20.50;83.60;;;;;;4179281;28;20024;-60
2023/06/18 03:56:29;;;;;;;5.68;3.40;;;20.50;83.60;;;;;;4175716;28;20052;-60
2023/06/18 03:58:30;;;;;;;4.20;3.25;;;20.50;83.70;;;;;;4176600;28;20538;-60
2023/06/18 04:00:31;;;;;;;4.68;3.35;;;20.50;83.90;;;;;;4172470;28;20040;-59
2023/06/18 04:02:31;;;;;;;5.47;4.00;;;20.40;84.10;;;;;;4172182;28;20029;-60
2023/06/18 04:04:32;;;;;;;4.60;3.60;;;20.40;84.30;;;;;;4172618;28;20090;-60
2023/06/18 04:06:33;;;;;;;4.00;3.28;;;20.40;84.40;;;;;;4177067;28;20029;-60
2023/06/18 04:08:34;;;;;;;4.90;3.28;;;20.40;84.20;;;;;;4183800;28;20034;-59
2023/06/18 04:10:34;;;;;;;7.55;3.55;;;20.40;84.50;;;;;;4188312;28;20032;-59
2023/06/18 04:12:35;;;;;;;5.13;3.70;;;20.50;84.40;;;;;;4177187;28;20112;-59
2023/06/18 04:14:36;;;;;;;5.25;3.78;;;20.50;84.40;;;;;;4180101;28;20041;-59
2023/06/18 04:16:37;;;;;;;5.20;3.90;;;20.50;85.00;;;;;;4189179;28;20029;-60
2023/06/18 04:18:37;;;;;;;6.85;3.88;;;20.50;84.90;;;;;;4188926;28;20035;-60
2023/06/18 04:20:38;;;;;;;3.70;2.95;;;20.50;84.50;;;;;;4182630;28;20044;-60
2023/06/18 04:22:39;;;;;;;4.95;3.95;;;20.60;84.60;;;;;;4179387;28;20120;-61
2023/06/18 04:24:39;;;;;;;5.07;4.00;;;20.50;84.60;;;;;;4173521;28;20029;-60
2023/06/18 04:26:40;;;;;;;6.25;4.45;;;20.50;84.60;;;;;;4182349;28;20419;-60
2023/06/18 04:28:40;;;;;;;5.13;4.10;;;20.40;85.00;;;;;;4177769;28;20112;-60
2023/06/18 04:30:41;;;;;;;6.90;4.70;;;20.40;85.40;;;;;;4171996;28;20036;-59
2023/06/18 04:32:41;;;;;;;6.80;3.92;;;20.40;85.60;;;;;;4162921;28;20376;-59
2023/06/18 04:34:42;;;;;;;5.75;4.07;;;20.50;85.50;;;;;;4176647;28;20086;-59
2023/06/18 04:36:43;;;;;;;6.75;4.57;;;20.50;85.50;;;;;;4171755;28;20029;-60
2023/06/18 04:38:44;;;;;;;6.75;4.53;;;20.50;86.00;;;;;;4191176;28;20028;-60
2023/06/18 04:40:45;;;;;;;8.02;4.63;;;20.50;86.30;;;;;;4173777;28;20037;-60
2023/06/18 04:42:46;;;;;;;5.43;4.13;;;20.50;86.70;;;;;;4173802;28;20064;-60
2023/06/18 04:44:47;;;;;;;7.03;4.30;;;20.50;87.30;;;;;;4173211;28;20033;-59
2023/06/18 04:46:48;;;;;;;8.57;5.45;;;20.50;87.30;;;;;;4174597;28;20491;-60
2023/06/18 04:48:48;;;;;;;8.27;5.07;;;20.60;87.00;;;;;;4173964;28;20033;-60
2023/06/18 04:50:49;;;;;;;9.68;5.93;;;20.60;87.30;;;;;;4175882;28;20524;-60
2023/06/18 04:52:50;;;;;;;9.65;6.03;;;20.60;86.30;;;;;;4171474;28;20029;-60
2023/06/18 04:54:52;;;;;;;10.77;6.68;;;20.70;86.10;;;;;;4168853;28;20103;-59
2023/06/18 04:56:53;;;;;;;9.45;7.15;;;20.70;85.40;;;;;;4174810;28;20033;-60
2023/06/18 04:58:53;;;;;;;9.95;7.05;;;20.70;84.90;;;;;;4173247;28;20442;-59
2023/06/18 05:00:54;;;;;;;8.65;6.72;;;20.70;85.10;;;;;;4170356;28;20446;-60
2023/06/18 05:02:57;;;;;;;8.77;6.93;;;20.80;86.20;;;;;;4170649;28;20045;-60
2023/06/18 05:04:57;;;;;;;10.32;7.45;;;20.80;85.10;;;;;;4174498;28;20035;-60
2023/06/18 05:06:58;;;;;;;11.35;7.38;;;20.80;84.70;;;;;;4173413;28;20420;-59
2023/06/18 05:08:59;;;;;;;10.20;6.85;;;20.80;84.30;;;;;;4174114;28;20087;-59
2023/06/18 05:10:59;;;;;;;14.63;8.07;;;20.80;84.20;;;;;;4172165;28;20024;-60
2023/06/18 05:13:00;;;;;;;10.32;6.95;;;20.80;84.00;;;;;;4171178;28;22685;-60
2023/06/18 05:15:01;;;;;;;10.43;6.88;;;20.80;84.20;;;;;;4174603;28;20029;-60
2023/06/18 05:17:01;;;;;;;10.45;7.35;;;20.70;83.90;;;;;;4173413;28;20371;-59
2023/06/18 05:19:03;;;;;;;9.93;7.30;;;20.80;84.00;;;;;;4175016;28;20434;-60
2023/06/18 05:21:03;;;;;;;11.98;6.97;;;20.90;84.30;;;;;;4172462;28;20080;-59
2023/06/18 05:23:04;;;;;;;10.82;7.72;;;20.90;83.70;;;;;;4166138;28;20033;-60
2023/06/18 05:25:05;;;;;;;9.35;6.88;;;20.80;83.90;;;;;;4168561;28;20026;-64
2023/06/18 05:27:06;;;;;;;11.05;7.07;;;20.80;84.00;;;;;;4171337;28;20036;-60
2023/06/18 05:29:07;;;;;;;8.75;6.65;;;20.80;84.00;;;;;;4170934;28;20116;-59
2023/06/18 05:31:07;;;;;;;11.02;7.13;;;20.80;84.20;;;;;;4167180;28;20112;-59
2023/06/18 05:33:08;;;;;;;9.77;6.78;;;20.80;83.70;;;;;;4169433;28;20037;-60
2023/06/18 05:35:08;;;;;;;8.70;6.25;;;20.90;84.20;;;;;;4174126;28;20051;-63
2023/06/18 05:37:09;;;;;;;7.88;5.63;;;21.00;84.10;;;;;;4172502;28;20057;-59
2023/06/18 05:39:10;;;;;;;9.65;6.43;;;21.00;84.10;;;;;;4172680;28;20559;-59
2023/06/18 05:41:11;;;;;;;9.05;5.60;;;21.10;85.00;;;;;;4183193;28;20033;-59
2023/06/18 05:43:11;;;;;;;10.50;6.25;;;21.10;83.60;;;;;;4178245;28;20033;-61
2023/06/18 05:45:12;;;;;;;7.32;4.93;;;21.20;83.30;;;;;;4177594;28;20036;-60
2023/06/18 05:47:13;;;;;;;8.50;6.05;;;21.30;83.50;;;;;;4168397;28;20448;-60
2023/06/18 05:49:13;;;;;;;9.07;6.22;;;21.40;82.80;;;;;;4171662;28;20488;-61
2023/06/18 05:51:15;;;;;;;8.70;6.20;;;21.50;82.70;;;;;;4169119;28;20087;-60
2023/06/18 05:53:15;;;;;;;11.05;7.28;;;21.60;82.70;;;;;;4169320;28;20087;-60
2023/06/18 05:55:16;;;;;;;8.90;6.25;;;21.70;81.20;;;;;;4172840;28;20033;-60
2023/06/18 05:57:16;;;;;;;9.23;6.28;;;21.90;80.50;;;;;;4169801;28;20029;-60
2023/06/18 05:59:17;;;;;;;10.18;7.00;;;22.00;79.90;;;;;;4171825;28;20041;-60
2023/06/18 06:01:17;;;;;;;15.80;6.57;;;22.10;79.40;;;;;;4170621;28;20059;-60
2023/06/18 06:03:18;;;;;;;8.45;6.13;;;22.20;79.50;;;;;;4166991;28;20132;-60
2023/06/18 06:05:20;;;;;;;7.93;5.75;;;22.30;79.00;;;;;;4172023;28;20095;-60
2023/06/18 06:07:21;;;;;;;9.73;6.65;;;22.50;78.70;;;;;;4175087;28;20054;-62
2023/06/18 06:09:21;;;;;;;10.50;6.90;;;22.60;77.40;;;;;;4175651;28;20041;-61
2023/06/18 06:11:22;;;;;;;11.20;6.95;;;22.80;77.20;;;;;;4173089;28;20025;-61
2023/06/18 06:13:23;;;;;;;9.70;6.40;;;23.00;76.30;;;;;;4172882;28;20040;-61
2023/06/18 06:15:23;;;;;;;8.63;6.20;;;23.20;75.30;;;;;;4180275;28;20036;-60
2023/06/18 06:17:24;;;;;;;10.00;6.93;;;23.40;75.10;;;;;;4174728;28;20045;-60
2023/06/18 06:19:26;;;;;;;6.88;5.22;;;23.50;74.60;;;;;;4182059;28;20395;-61
2023/06/18 06:21:27;;;;;;;8.65;5.90;;;23.70;74.80;;;;;;4172617;28;20129;-60
2023/06/18 06:23:27;;;;;;;9.05;6.00;;;23.90;74.70;;;;;;4171314;28;20045;-61
2023/06/18 06:25:28;;;;;;;10.25;5.85;;;24.10;73.40;;;;;;4166831;28;20420;-60
2023/06/18 06:27:29;;;;;;;8.50;6.05;;;24.30;73.70;;;;;;4182133;28;20041;-61
2023/06/18 06:29:29;;;;;;;7.50;5.47;;;24.40;71.90;;;;;;4189329;28;20032;-60
2023/06/18 06:31:30;;;;;;;8.63;5.43;;;24.50;72.10;;;;;;4166874;28;20073;-61
2023/06/18 06:33:31;;;;;;;7.43;5.25;;;24.70;72.70;;;;;;4168484;28;20079;-60
2023/06/18 06:35:31;;;;;;;8.38;6.15;;;24.80;71.60;;;;;;4169138;28;20053;-60
2023/06/18 06:37:32;;;;;;;8.85;5.45;;;24.80;70.70;;;;;;4176448;28;20029;-65
2023/06/18 06:39:34;;;;;;;7.40;5.80;;;24.90;70.90;;;;;;4166365;28;20104;-64
2023/06/18 06:41:34;;;;;;;7.70;4.90;;;24.90;69.10;;;;;;4173908;28;20052;-65
2023/06/18 06:43:35;;;;;;;7.22;5.07;;;24.90;69.00;;;;;;4171373;28;20108;-64
2023/06/18 06:45:35;;;;;;;6.82;4.85;;;25.00;70.30;;;;;;4173864;28;20021;-65
2023/06/18 06:47:36;;;;;;;6.30;4.80;;;25.00;68.20;;;;;;4178169;28;20036;-65
2023/06/18 06:49:37;;;;;;;6.03;4.93;;;25.10;68.60;;;;;;4177559;28;20040;-65
2023/06/18 06:51:38;;;;;;;6.43;4.80;;;25.10;68.00;;;;;;4172295;28;20481;-65
2023/06/18 06:53:39;;;;;;;6.75;4.93;;;25.00;67.60;;;;;;4175559;28;20110;-65
2023/06/18 06:55:39;;;;;;;6.28;4.68;;;25.10;67.80;;;;;;4178230;28;20061;-65
2023/06/18 06:57:40;;;;;;;5.80;4.30;;;25.10;67.40;;;;;;4173226;28;20112;-64
2023/06/18 06:59:40;;;;;;;7.05;4.75;;;25.10;67.70;;;;;;4175262;28;20025;-65
2023/06/18 07:01:42;;;;;;;8.65;4.78;;;25.20;67.10;;;;;;4180246;28;20059;-65
2023/06/18 07:03:43;;;;;;;8.35;4.80;;;25.10;65.30;;;;;;4170336;28;20167;-66
2023/06/18 07:05:44;;;;;;;11.40;5.47;;;25.20;66.70;;;;;;4177777;28;20033;-64
2023/06/18 07:07:44;;;;;;;6.70;4.60;;;25.20;67.20;;;;;;4179286;28;20067;-65
2023/06/18 07:09:45;;;;;;;6.03;4.47;;;25.20;64.70;;;;;;4176825;28;20037;-65
2023/06/18 07:11:46;;;;;;;8.15;4.60;;;25.20;65.50;;;;;;4177239;28;20044;-65
2023/06/18 07:13:46;;;;;;;6.90;4.43;;;25.30;66.00;;;;;;4186358;28;20503;-65
2023/06/18 07:15:47;;;;;;;6.88;4.30;;;25.30;65.10;;;;;;4177322;28;20025;-65
2023/06/18 07:17:47;;;;;;;5.50;3.75;;;25.30;64.80;;;;;;4186373;28;20496;-65
2023/06/18 07:19:48;;;;;;;5.78;4.05;;;25.40;64.50;;;;;;4184152;28;20496;-65
2023/06/18 07:21:50;;;;;;;7.43;4.70;;;25.50;65.30;;;;;;4175353;28;20357;-65
2023/06/18 07:23:50;;;;;;;5.25;4.03;;;25.40;63.80;;;;;;4178672;28;20414;-65
2023/06/18 07:25:51;;;;;;;6.45;4.60;;;25.40;64.10;;;;;;4188286;28;20060;-65
2023/06/18 07:27:52;;;;;;;6.28;4.35;;;25.50;64.40;;;;;;4180967;28;20472;-65
2023/06/18 07:29:53;;;;;;;7.22;4.68;;;25.50;64.50;;;;;;4176922;28;20052;-66
2023/06/18 07:31:53;;;;;;;7.40;4.40;;;25.40;64.30;;;;;;4172887;28;20064;-65
2023/06/18 07:33:55;;;;;;;6.15;4.60;;;25.50;66.30;;;;;;4170568;28;20460;-65
2023/06/18 07:35:56;;;;;;;6.65;4.85;;;25.50;62.60;;;;;;4170727;28;20103;-65
2023/06/18 07:37:56;;;;;;;6.53;4.43;;;25.60;62.50;;;;;;4177558;28;20120;-65
2023/06/18 07:39:57;;;;;;;6.25;4.30;;;25.40;62.00;;;;;;4185325;28;20024;-65
2023/06/18 07:41:58;;;;;;;6.93;4.97;;;25.50;62.10;;;;;;4191565;28;20024;-65
2023/06/18 07:43:58;;;;;;;6.32;4.32;;;25.50;61.80;;;;;;4171900;28;20060;-65
2023/06/18 07:45:59;;;;;;;7.93;4.60;;;25.50;62.60;;;;;;4183779;28;20044;-65
2023/06/18 07:47:59;;;;;;;6.95;4.13;;;25.50;62.70;;;;;;4178533;28;20033;-65
2023/06/18 07:50:01;;;;;;;5.82;4.40;;;25.60;62.50;;;;;;4182073;28;20327;-65
2023/06/18 07:52:02;;;;;;;9.30;4.63;;;25.60;62.30;;;;;;4178955;28;20502;-65
2023/06/18 07:54:03;;;;;;;4.50;3.85;;;25.60;63.20;;;;;;4173981;28;20025;-64
2023/06/18 07:56:03;;;;;;;6.20;4.03;;;25.60;63.10;;;;;;4174267;28;20396;-65
2023/06/18 07:58:04;;;;;;;5.15;4.18;;;25.70;63.70;;;;;;4170857;28;20037;-63
2023/06/18 08:00:05;;;;;;;4.95;3.63;;;25.70;65.60;;;;;;4175734;28;20539;-67
2023/06/18 08:02:06;;;;;;;6.70;4.40;;;25.70;65.40;;;;;;4178366;28;20036;-65
2023/06/18 08:04:08;;;;;;;6.50;4.78;;;25.70;63.10;;;;;;4168935;28;20493;-65
2023/06/18 08:06:08;;;;;;;5.73;4.03;;;25.70;64.00;;;;;;4170751;28;20041;-65
2023/06/18 08:08:09;;;;;;;7.30;4.70;;;25.80;63.70;;;;;;4178432;28;20451;-65
2023/06/18 08:10:09;;;;;;;5.35;4.13;;;25.80;63.90;;;;;;4175895;28;20040;-65
2023/06/18 08:12:11;;;;;;;7.50;4.70;;;25.70;64.70;;;;;;4193969;28;20024;-65
2023/06/18 08:14:12;;;;;;;6.18;4.10;;;25.80;64.10;;;;;;4177738;28;20392;-65
2023/06/18 08:16:12;;;;;;;5.75;4.00;;;25.80;65.60;;;;;;4192186;28;20036;-65
2023/06/18 08:18:13;;;;;;;6.07;4.00;;;25.90;63.80;;;;;;4194276;28;20040;-65
2023/06/18 08:20:13;;;;;;;6.55;3.85;;;25.90;64.70;;;;;;4181855;28;20037;-65
2023/06/18 08:22:15;;;;;;;6.35;3.97;;;25.90;65.20;;;;;;4180114;28;20171;-65
2023/06/18 08:24:16;;;;;;;5.50;4.07;;;25.90;64.10;;;;;;4182655;28;20563;-65
2023/06/18 08:26:19;;;;;;;4.20;3.60;;;26.00;64.50;;;;;;4185936;28;20040;-65
2023/06/18 08:28:20;;;;;;;;;;;26.00;64.10;;;;;;4184033;28;20032;-65
2023/06/18 08:30:20;;;;;;;6.75;4.68;;;26.00;64.60;;;;;;4179925;28;19932;-65
2023/06/18 08:32:21;;;;;;;6.88;4.22;;;26.10;65.20;;;;;;4176191;28;20382;-65
2023/06/18 08:34:21;;;;;;;5.55;4.55;;;26.10;66.20;;;;;;4176565;28;20025;-66
2023/06/18 08:36:22;;;;;;;8.07;4.18;;;26.20;66.10;;;;;;4177435;28;20028;-65
2023/06/18 08:38:22;;;;;;;6.68;4.35;;;26.20;66.60;;;;;;4161896;28;20079;-65
2023/06/18 08:40:26;;;;;;;8.27;4.80;;;26.20;67.30;;;;;;4172189;28;20398;-65
2023/06/18 08:42:27;;;;;;;7.85;4.82;;;26.10;66.30;;;;;;4181413;28;20052;-65
2023/06/18 08:44:33;;;;;;;6.32;4.10;;;26.10;67.30;;;;;;4176546;28;20047;-65
2023/06/18 08:46:35;;;;;;;4.68;3.67;;;26.20;66.20;;;;;;4188311;28;20074;-65
2023/06/18 08:48:48;;;;;;;6.95;4.97;;;26.20;66.80;;;;;;4193009;28;20491;-65
2023/06/18 08:50:50;;;;;;;16.58;5.50;;;26.20;66.60;;;;;;4177804;28;20037;-65
2023/06/18 08:52:58;;;;;;;8.43;4.32;;;26.20;68.00;;;;;;4180501;28;20044;-66
2023/06/18 08:55:07;;;;;;;6.65;4.43;;;26.20;66.20;;;;;;4175254;28;20107;-65
2023/06/18 08:57:23;;;;;;;5.38;3.78;;;26.20;64.70;;;;;;4177239;28;20423;-65
2023/06/18 08:59:24;;;;;;;6.80;4.50;;;26.20;65.70;;;;;;4172779;28;20025;-65
2023/06/18 09:01:25;;;;;;;7.60;4.95;;;26.20;67.80;;;;;;4180019;28;20086;-66
2023/06/18 09:03:27;;;;;;;6.28;4.20;;;26.20;67.20;;;;;;4187909;28;20759;-66
2023/06/18 09:05:28;;;;;;;5.82;3.70;;;26.30;66.10;;;;;;4173398;28;20217;-64
2023/06/18 09:07:29;;;;;;;4.53;3.58;;;26.30;63.50;;;;;;4176263;28;20398;-64
2023/06/18 09:09:30;;;;;;;5.40;4.05;;;26.40;64.00;;;;;;4175264;28;20040;-64
2023/06/18 09:11:32;;;;;;;4.72;3.60;;;26.40;66.10;;;;;;4175817;28;20121;-64
2023/06/18 09:13:39;;;;;;;5.10;3.83;;;26.50;63.90;;;;;;4181764;28;20708;-64
2023/06/18 09:15:40;;;;;;;6.50;3.35;;;26.50;64.10;;;;;;4179682;28;20032;-64
2023/06/18 09:17:50;;;;;;;4.18;3.35;;;26.60;65.80;;;;;;4190699;28;20380;-64
2023/06/18 09:19:52;;;;;;;4.10;3.42;;;26.70;63.90;;;;;;4188568;28;20492;-64
2023/06/18 09:21:53;;;;;;;5.20;3.83;;;26.70;62.20;;;;;;4173474;28;20025;-64
2023/06/18 09:23:54;;;;;;;6.50;3.95;;;26.80;62.00;;;;;;4177174;28;20052;-64
2023/06/18 09:25:56;;;;;;;4.50;3.60;;;26.90;62.10;;;;;;4175429;28;20025;-65
2023/06/18 09:27:56;;;;;;;5.97;3.45;;;26.90;59.80;;;;;;4178970;28;20025;-63
2023/06/18 09:29:57;;;;;;;4.05;3.35;;;27.00;62.20;;;;;;4175038;28;20039;-64
2023/06/18 09:32:11;;;;;;;5.88;3.78;;;27.10;62.20;;;;;;4188223;28;20479;-64
2023/06/18 09:34:18;;;;;;;5.13;3.50;;;27.20;62.30;;;;;;4184876;28;20432;-64
2023/06/18 09:36:18;;;;;;;8.70;3.60;;;27.30;62.00;;;;;;4181797;28;20116;-64
2023/06/18 09:38:19;;;;;;;5.68;3.42;;;27.40;61.30;;;;;;4175937;28;20036;-64
2023/06/18 09:40:21;;;;;;;4.68;3.50;;;27.40;61.40;;;;;;4174792;28;20124;-64
2023/06/18 09:42:27;;;;;;;;;;;27.40;60.20;;;;;;4174715;28;20093;-64
2023/06/18 09:44:28;;;;;;;4.00;3.20;;;27.50;60.20;;;;;;4175595;28;19916;-64
2023/06/18 09:46:29;;;;;;;6.20;3.55;;;27.50;59.90;;;;;;4164658;28;20481;-64
2023/06/18 09:48:30;;;;;;;4.93;3.50;;;27.50;62.70;;;;;;4178650;28;20051;-64
2023/06/18 09:50:31;;;;;;;8.30;3.58;;;27.50;62.30;;;;;;4172418;28;20032;-64
2023/06/18 09:52:44;;;;;;;4.68;3.58;;;27.50;61.20;;;;;;4173595;28;20036;-64
2023/06/18 09:54:46;;;;;;;3.85;3.08;;;27.60;60.80;;;;;;4176240;28;20040;-64
2023/06/18 09:56:58;;;;;;;3.65;3.10;;;27.60;60.20;;;;;;4172529;28;20029;-64
2023/06/18 09:59:01;;;;;;;4.03;3.47;;;27.60;60.60;;;;;;4179282;28;20029;-64
2023/06/18 10:01:03;;;;;;;;;;;27.60;61.00;;;;;;4173244;28;20338;-65
2023/06/18 10:03:07;;;;;;;4.25;3.20;;;27.60;59.90;;;;;;4163516;28;19944;-64
2023/06/18 10:05:08;;;;;;;3.83;3.08;;;27.50;62.10;;;;;;4166757;28;20021;-64
2023/06/18 10:07:16;;;;;;;5.32;3.80;;;27.50;61.50;;;;;;4168954;28;20033;-64
2023/06/18 10:09:18;;;;;;;9.95;3.30;;;27.60;60.70;;;;;;4172779;28;20033;-64
2023/06/18 10:11:20;;;;;;;3.65;3.10;;;27.60;61.80;;;;;;4174593;28;20029;-64
2023/06/18 10:13:23;;;;;;;6.57;3.90;;;27.60;61.00;;;;;;4167284;28;20043;-65
2023/06/18 10:15:25;;;;;;;4.97;3.42;;;27.60;61.00;;;;;;4168389;28;20500;-64
2023/06/18 10:17:31;;;;;;;4.85;3.78;;;27.70;60.80;;;;;;4168017;28;20025;-65
2023/06/18 10:19:39;;;;;;;5.38;3.25;;;27.70;59.70;;;;;;4173211;28;20033;-64
2023/06/18 10:21:48;;;;;;;4.97;3.78;;;27.70;61.10;;;;;;4180019;28;20364;-64
2023/06/18 10:23:55;;;;;;;6.95;3.85;;;27.70;59.00;;;;;;4171123;28;20395;-64
2023/06/18 10:25:56;;;;;;;5.10;3.38;;;27.80;58.40;;;;;;4184404;28;20064;-64
2023/06/18 10:27:58;;;;;;;5.60;3.88;;;27.80;59.10;;;;;;4172734;28;20033;-64
2023/06/18 10:29:59;;;;;;;;;;;27.90;59.00;;;;;;4171871;28;20086;-65
2023/06/18 10:32:04;;;;;;;5.25;3.38;;;28.00;58.90;;;;;;4173611;28;19963;-64
2023/06/18 10:34:06;;;;;;;4.65;3.53;;;28.10;60.10;;;;;;4173225;28;20033;-64